sensor_id;sensor_type;location;lat;lon;timestamp;pressure;altitude;pressure_sealevel;temperature;humidity
33949;BME280;20229;49.856;19.030;2023-05-23T00:01:35;101299.27;;;11.89;86.01
33949;BME280;20229;49.856;19.030;2023-05-23T00:06:50;101294.18;;;11.81;86.59
33949;BME280;20229;49.856;19.030;2023-05-23T00:12:04;101299.80;;;11.78;86.60
33949;BME280;20229;49.856;19.030;2023-05-23T00:17:19;101293.91;;;11.68;87.06
33949;BME280;20229;49.856;19.030;2023-05-23T00:22:37;101280.65;;;11.61;87.38
33949;BME280;20229;49.856;19.030;2023-05-23T00:28:01;101280.95;;;11.55;87.74
33949;BME280;20229;49.856;19.030;2023-05-23T00:33:15;101277.58;;;11.49;86.86
33949;BME280;20229;49.856;19.030;2023-05-23T00:38:29;101286.23;;;11.40;87.97
33949;BME280;20229;49.856;19.030;2023-05-23T00:43:45;101288.39;;;11.34;88.13
33949;BME280;20229;49.856;19.030;2023-05-23T00:48:59;101295.07;;;11.28;88.27
33949;BME280;20229;49.856;19.030;2023-05-23T00:54:14;101287.17;;;11.22;88.79
33949;BME280;20229;49.856;19.030;2023-05-23T00:59:30;101289.27;;;11.17;88.84
33949;BME280;20229;49.856;19.030;2023-05-23T01:04:44;101285.86;;;11.12;89.34
33949;BME280;20229;49.856;19.030;2023-05-23T01:09:58;101295.31;;;11.05;89.75
33949;BME280;20229;49.856;19.030;2023-05-23T01:15:15;101280.92;;;11.01;89.77
33949;BME280;20229;49.856;19.030;2023-05-23T01:20:42;101286.54;;;10.98;90.72
33949;BME280;20229;49.856;19.030;2023-05-23T01:31:52;101285.94;;;10.91;90.50
33949;BME280;20229;49.856;19.030;2023-05-23T01:37:11;101295.39;;;10.84;90.59
33949;BME280;20229;49.856;19.030;2023-05-23T01:42:30;101279.00;;;10.84;91.45
33949;BME280;20229;49.856;19.030;2023-05-23T01:47:47;101283.73;;;10.81;91.36
33949;BME280;20229;49.856;19.030;2023-05-23T01:53:02;101281.14;;;10.77;91.12
33949;BME280;20229;49.856;19.030;2023-05-23T01:58:18;101281.23;;;10.76;91.72
33949;BME280;20229;49.856;19.030;2023-05-23T02:03:32;101274.00;;;10.75;91.18
33949;BME280;20229;49.856;19.030;2023-05-23T02:08:47;101276.88;;;10.72;91.33
33949;BME280;20229;49.856;19.030;2023-05-23T02:14:01;101283.37;;;10.69;91.46
33949;BME280;20229;49.856;19.030;2023-05-23T02:19:15;101277.11;;;10.67;91.88
33949;BME280;20229;49.856;19.030;2023-05-23T02:24:29;101279.89;;;10.66;91.79
33949;BME280;20229;49.856;19.030;2023-05-23T02:29:43;101275.55;;;10.62;92.01
33949;BME280;20229;49.856;19.030;2023-05-23T02:34:57;101267.50;;;10.59;91.98
33949;BME280;20229;49.856;19.030;2023-05-23T02:40:12;101267.77;;;10.52;92.39
33949;BME280;20229;49.856;19.030;2023-05-23T02:45:26;101267.95;;;10.49;93.14
33949;BME280;20229;49.856;19.030;2023-05-23T02:50:39;101268.23;;;10.43;93.01
33949;BME280;20229;49.856;19.030;2023-05-23T02:55:53;101267.35;;;10.43;93.03
33949;BME280;20229;49.856;19.030;2023-05-23T03:01:08;101269.16;;;10.42;93.11
33949;BME280;20229;49.856;19.030;2023-05-23T03:06:22;101256.34;;;10.44;93.26
33949;BME280;20229;49.856;19.030;2023-05-23T03:11:36;101259.08;;;10.44;93.10
33949;BME280;20229;49.856;19.030;2023-05-23T03:16:51;101258.80;;;10.50;92.80
33949;BME280;20229;49.856;19.030;2023-05-23T03:22:04;101251.58;;;10.49;93.13
33949;BME280;20229;49.856;19.030;2023-05-23T03:27:19;101249.49;;;10.55;93.16
33949;BME280;20229;49.856;19.030;2023-05-23T03:32:32;101249.34;;;10.58;93.01
33949;BME280;20229;49.856;19.030;2023-05-23T03:37:46;101249.95;;;10.64;93.05
33949;BME280;20229;49.856;19.030;2023-05-23T03:43:01;101247.72;;;10.72;92.89
33949;BME280;20229;49.856;19.030;2023-05-23T03:48:16;101240.91;;;10.81;92.87
33949;BME280;20229;49.856;19.030;2023-05-23T03:53:30;101249.49;;;10.92;92.60
33949;BME280;20229;49.856;19.030;2023-05-23T03:58:44;101249.59;;;11.08;93.62
33949;BME280;20229;49.856;19.030;2023-05-23T04:03:58;101248.81;;;11.23;93.61
33949;BME280;20229;49.856;19.030;2023-05-23T04:09:12;101238.83;;;11.41;93.79
33949;BME280;20229;49.856;19.030;2023-05-23T04:14:27;101234.15;;;11.61;93.58
33949;BME280;20229;49.856;19.030;2023-05-23T04:19:43;101232.23;;;11.80;93.50
33949;BME280;20229;49.856;19.030;2023-05-23T04:24:57;101232.05;;;12.01;92.85
33949;BME280;20229;49.856;19.030;2023-05-23T04:30:12;101236.84;;;12.30;90.14
33949;BME280;20229;49.856;19.030;2023-05-23T04:35:26;101245.19;;;12.60;88.69
33949;BME280;20229;49.856;19.030;2023-05-23T04:40:46;101244.32;;;12.91;87.73
33949;BME280;20229;49.856;19.030;2023-05-23T04:46:02;101236.26;;;13.20;86.84
33949;BME280;20229;49.856;19.030;2023-05-23T04:51:15;101234.65;;;13.48;86.76
33949;BME280;20229;49.856;19.030;2023-05-23T04:56:29;101233.94;;;13.74;85.24
33949;BME280;20229;49.856;19.030;2023-05-23T05:01:43;101235.59;;;14.07;84.12
33949;BME280;20229;49.856;19.030;2023-05-23T05:06:57;101229.73;;;14.70;83.82
33949;BME280;20229;49.856;19.030;2023-05-23T05:12:11;101218.72;;;16.81;76.16
33949;BME280;20229;49.856;19.030;2023-05-23T05:17:24;101219.27;;;18.96;69.75
33949;BME280;20229;49.856;19.030;2023-05-23T05:22:39;101217.99;;;21.50;62.16
33949;BME280;20229;49.856;19.030;2023-05-23T05:27:53;101212.73;;;24.68;52.04
33949;BME280;20229;49.856;19.030;2023-05-23T05:33:08;101198.62;;;27.31;47.51
33949;BME280;20229;49.856;19.030;2023-05-23T05:38:22;101200.84;;;29.24;42.29
33949;BME280;20229;49.856;19.030;2023-05-23T05:43:36;101205.53;;;30.67;37.25
33949;BME280;20229;49.856;19.030;2023-05-23T05:48:50;101192.13;;;31.72;35.56
33949;BME280;20229;49.856;19.030;2023-05-23T05:54:03;101189.55;;;32.83;34.11
33949;BME280;20229;49.856;19.030;2023-05-23T05:59:17;101186.87;;;33.60;30.36
33949;BME280;20229;49.856;19.030;2023-05-23T06:04:32;101193.57;;;34.29;30.50
33949;BME280;20229;49.856;19.030;2023-05-23T06:09:47;101183.30;;;34.96;28.95
33949;BME280;20229;49.856;19.030;2023-05-23T06:15:01;101172.07;;;36.52;28.28
33949;BME280;20229;49.856;19.030;2023-05-23T06:20:15;101164.96;;;37.42;25.28
33949;BME280;20229;49.856;19.030;2023-05-23T06:25:29;101174.77;;;38.20;26.37
33949;BME280;20229;49.856;19.030;2023-05-23T06:30:43;101171.74;;;39.21;25.84
33949;BME280;20229;49.856;19.030;2023-05-23T06:35:57;101168.15;;;40.07;23.72
33949;BME280;20229;49.856;19.030;2023-05-23T06:41:11;101164.05;;;41.05;23.44
33949;BME280;20229;49.856;19.030;2023-05-23T06:46:25;101154.70;;;41.30;22.83
33949;BME280;20229;49.856;19.030;2023-05-23T06:51:40;101146.58;;;42.00;20.13
33949;BME280;20229;49.856;19.030;2023-05-23T06:56:54;101148.88;;;42.39;21.96
33949;BME280;20229;49.856;19.030;2023-05-23T07:02:08;101133.05;;;43.42;20.96
33949;BME280;20229;49.856;19.030;2023-05-23T07:07:21;101125.77;;;44.04;18.96
33949;BME280;20229;49.856;19.030;2023-05-23T07:12:35;101131.64;;;43.89;19.53
33949;BME280;20229;49.856;19.030;2023-05-23T07:17:49;101126.56;;;44.10;18.82
33949;BME280;20229;49.856;19.030;2023-05-23T07:23:02;101122.32;;;43.63;19.52
33949;BME280;20229;49.856;19.030;2023-05-23T07:28:16;101111.93;;;43.17;18.77
33949;BME280;20229;49.856;19.030;2023-05-23T07:33:30;101112.90;;;43.97;19.02
33949;BME280;20229;49.856;19.030;2023-05-23T07:38:47;101112.15;;;44.73;18.83
33949;BME280;20229;49.856;19.030;2023-05-23T07:44:01;101109.26;;;44.97;19.04
33949;BME280;20229;49.856;19.030;2023-05-23T07:49:15;101104.53;;;45.68;18.60
33949;BME280;20229;49.856;19.030;2023-05-23T07:54:29;101108.43;;;45.59;19.01
33949;BME280;20229;49.856;19.030;2023-05-23T07:59:43;101094.94;;;45.73;18.23
33949;BME280;20229;49.856;19.030;2023-05-23T08:04:57;101094.23;;;45.43;18.57
33949;BME280;20229;49.856;19.030;2023-05-23T08:10:12;101088.73;;;45.85;17.62
33949;BME280;20229;49.856;19.030;2023-05-23T08:15:26;101088.46;;;45.43;18.24
33949;BME280;20229;49.856;19.030;2023-05-23T08:20:41;101082.14;;;42.98;19.84
33949;BME280;20229;49.856;19.030;2023-05-23T08:25:55;101080.20;;;40.57;22.23
33949;BME280;20229;49.856;19.030;2023-05-23T08:31:09;101078.89;;;39.19;23.92
33949;BME280;20229;49.856;19.030;2023-05-23T08:36:24;101084.57;;;37.97;23.35
33949;BME280;20229;49.856;19.030;2023-05-23T08:41:38;101071.33;;;36.89;24.53
33949;BME280;20229;49.856;19.030;2023-05-23T08:46:52;101075.25;;;36.00;25.89
33949;BME280;20229;49.856;19.030;2023-05-23T08:52:11;101077.08;;;35.41;26.68
33949;BME280;20229;49.856;19.030;2023-05-23T08:57:27;101071.54;;;34.97;26.80
33949;BME280;20229;49.856;19.030;2023-05-23T09:02:45;101065.01;;;34.23;26.56
33949;BME280;20229;49.856;19.030;2023-05-23T09:07:59;101074.98;;;33.83;28.29
33949;BME280;20229;49.856;19.030;2023-05-23T09:13:13;101061.22;;;33.61;29.04
33949;BME280;20229;49.856;19.030;2023-05-23T09:18:35;101056.37;;;33.68;29.79
33949;BME280;20229;49.856;19.030;2023-05-23T09:23:49;101053.53;;;33.37;29.06
33949;BME280;20229;49.856;19.030;2023-05-23T09:29:06;101045.21;;;33.10;31.03
33949;BME280;20229;49.856;19.030;2023-05-23T09:35:09;101042.44;;;32.52;31.19
33949;BME280;20229;49.856;19.030;2023-05-23T09:40:35;101052.90;;;32.31;31.50
33949;BME280;20229;49.856;19.030;2023-05-23T09:45:51;101039.21;;;32.42;32.25
33949;BME280;20229;49.856;19.030;2023-05-23T09:51:08;101029.63;;;32.29;31.10
33949;BME280;20229;49.856;19.030;2023-05-23T09:56:23;101035.15;;;31.84;30.03
33949;BME280;20229;49.856;19.030;2023-05-23T10:01:41;101030.17;;;31.60;31.42
33949;BME280;20229;49.856;19.030;2023-05-23T10:23:15;100998.48;;;31.31;33.00
33949;BME280;20229;49.856;19.030;2023-05-23T10:28:34;101000.56;;;31.09;33.18
33949;BME280;20229;49.856;19.030;2023-05-23T10:44:44;100988.85;;;30.92;34.19
33949;BME280;20229;49.856;19.030;2023-05-23T10:50:00;100985.61;;;30.95;34.82
33949;BME280;20229;49.856;19.030;2023-05-23T10:55:14;100979.95;;;31.02;34.63
33949;BME280;20229;49.856;19.030;2023-05-23T11:00:30;100969.54;;;30.89;32.54
33949;BME280;20229;49.856;19.030;2023-05-23T11:05:51;100958.42;;;30.75;34.10
33949;BME280;20229;49.856;19.030;2023-05-23T11:11:05;100954.12;;;30.79;34.81
33949;BME280;20229;49.856;19.030;2023-05-23T11:22:30;100945.23;;;30.75;35.32
33949;BME280;20229;49.856;19.030;2023-05-23T11:27:03;100951.74;;;30.82;36.30
33949;BME280;20229;49.856;19.030;2023-05-23T11:32:22;100950.86;;;30.75;36.12
33949;BME280;20229;49.856;19.030;2023-05-23T11:37:38;100947.99;;;30.68;37.50
33949;BME280;20229;49.856;19.030;2023-05-23T11:42:53;100945.38;;;30.73;36.42
33949;BME280;20229;49.856;19.030;2023-05-23T11:48:09;100946.27;;;30.67;36.01
33949;BME280;20229;49.856;19.030;2023-05-23T11:53:26;100949.01;;;30.47;36.45
33949;BME280;20229;49.856;19.030;2023-05-23T11:58:40;100955.09;;;30.10;37.02
33949;BME280;20229;49.856;19.030;2023-05-23T12:03:55;100940.80;;;30.05;37.54
33949;BME280;20229;49.856;19.030;2023-05-23T12:09:10;100934.78;;;30.14;37.12
33949;BME280;20229;49.856;19.030;2023-05-23T12:14:27;100945.10;;;30.00;37.37
33949;BME280;20229;49.856;19.030;2023-05-23T12:19:44;100944.57;;;29.84;36.11
33949;BME280;20229;49.856;19.030;2023-05-23T12:24:59;100979.53;;;29.46;37.48
33949;BME280;20229;49.856;19.030;2023-05-23T12:30:14;101005.78;;;28.89;36.63
33949;BME280;20229;49.856;19.030;2023-05-23T12:35:28;101004.17;;;28.14;37.10
33949;BME280;20229;49.856;19.030;2023-05-23T12:46:38;101100.84;;;27.05;38.36
33949;BME280;20229;49.856;19.030;2023-05-23T12:51:53;101105.16;;;26.29;43.47
33949;BME280;20229;49.856;19.030;2023-05-23T12:57:07;101107.52;;;25.43;49.03
33949;BME280;20229;49.856;19.030;2023-05-23T13:02:21;101103.33;;;24.72;51.88
33949;BME280;20229;49.856;19.030;2023-05-23T13:07:36;101095.32;;;24.09;54.60
33949;BME280;20229;49.856;19.030;2023-05-23T13:12:50;101078.16;;;23.70;57.01
33949;BME280;20229;49.856;19.030;2023-05-23T13:18:04;101080.04;;;23.25;58.09
33949;BME280;20229;49.856;19.030;2023-05-23T13:23:18;101091.95;;;23.00;59.86
33949;BME280;20229;49.856;19.030;2023-05-23T13:28:33;101097.13;;;22.67;61.40
33949;BME280;20229;49.856;19.030;2023-05-23T13:33:46;101093.61;;;22.65;64.22
33949;BME280;20229;49.856;19.030;2023-05-23T13:39:01;101103.39;;;22.51;64.06
33949;BME280;20229;49.856;19.030;2023-05-23T13:44:15;101088.78;;;22.39;66.63
33949;BME280;20229;49.856;19.030;2023-05-23T13:49:29;101100.34;;;22.45;66.23
33949;BME280;20229;49.856;19.030;2023-05-23T13:54:44;101089.52;;;22.41;66.67
33949;BME280;20229;49.856;19.030;2023-05-23T14:00:00;101082.72;;;22.26;67.10
33949;BME280;20229;49.856;19.030;2023-05-23T14:05:15;101084.20;;;22.21;67.76
33949;BME280;20229;49.856;19.030;2023-05-23T14:10:31;101077.19;;;22.07;67.24
33949;BME280;20229;49.856;19.030;2023-05-23T14:15:49;101076.21;;;21.98;68.38
33949;BME280;20229;49.856;19.030;2023-05-23T14:21:05;101069.05;;;21.95;70.18
33949;BME280;20229;49.856;19.030;2023-05-23T14:26:19;101070.59;;;22.08;71.81
33949;BME280;20229;49.856;19.030;2023-05-23T14:31:34;101053.78;;;22.09;70.52
33949;BME280;20229;49.856;19.030;2023-05-23T14:36:48;101052.57;;;22.12;70.05
33949;BME280;20229;49.856;19.030;2023-05-23T14:42:03;101044.13;;;22.04;71.61
33949;BME280;20229;49.856;19.030;2023-05-23T14:47:17;101043.27;;;22.03;72.38
33949;BME280;20229;49.856;19.030;2023-05-23T14:52:30;101052.16;;;22.07;73.62
33949;BME280;20229;49.856;19.030;2023-05-23T14:57:44;101043.23;;;22.13;74.89
33949;BME280;20229;49.856;19.030;2023-05-23T15:02:59;101026.27;;;22.16;76.20
33949;BME280;20229;49.856;19.030;2023-05-23T15:08:14;101030.66;;;22.09;76.30
33949;BME280;20229;49.856;19.030;2023-05-23T15:13:30;101036.52;;;22.06;76.97
33949;BME280;20229;49.856;19.030;2023-05-23T15:18:43;101024.77;;;22.12;76.92
33949;BME280;20229;49.856;19.030;2023-05-23T15:23:57;101025.54;;;22.04;77.18
33949;BME280;20229;49.856;19.030;2023-05-23T15:29:12;101017.46;;;22.11;77.76
33949;BME280;20229;49.856;19.030;2023-05-23T15:34:30;101010.41;;;22.26;75.62
33949;BME280;20229;49.856;19.030;2023-05-23T15:39:44;101012.41;;;22.34;74.86
33949;BME280;20229;49.856;19.030;2023-05-23T15:44:57;101016.01;;;22.16;73.91
33949;BME280;20229;49.856;19.030;2023-05-23T15:50:11;101027.75;;;22.01;73.87
33949;BME280;20229;49.856;19.030;2023-05-23T15:55:25;101017.79;;;21.70;76.60
33949;BME280;20229;49.856;19.030;2023-05-23T16:00:39;101029.40;;;21.46;77.27
33949;BME280;20229;49.856;19.030;2023-05-23T16:05:55;101012.04;;;21.35;79.45
33949;BME280;20229;49.856;19.030;2023-05-23T16:11:10;101009.52;;;21.22;79.71
33949;BME280;20229;49.856;19.030;2023-05-23T16:16:24;101007.62;;;21.13;78.69
33949;BME280;20229;49.856;19.030;2023-05-23T16:21:38;101004.13;;;21.11;78.15
33949;BME280;20229;49.856;19.030;2023-05-23T16:26:51;101010.56;;;21.01;79.16
33949;BME280;20229;49.856;19.030;2023-05-23T16:32:06;100998.75;;;20.90;78.98
33949;BME280;20229;49.856;19.030;2023-05-23T16:37:20;101013.48;;;20.81;79.11
33949;BME280;20229;49.856;19.030;2023-05-23T16:42:35;101010.84;;;20.69;79.84
33949;BME280;20229;49.856;19.030;2023-05-23T16:47:49;101016.38;;;20.60;79.93
33949;BME280;20229;49.856;19.030;2023-05-23T16:53:04;100998.71;;;20.51;81.08
33949;BME280;20229;49.856;19.030;2023-05-23T16:58:18;101012.09;;;20.46;80.94
33949;BME280;20229;49.856;19.030;2023-05-23T17:03:32;101019.38;;;20.37;83.10
33949;BME280;20229;49.856;19.030;2023-05-23T17:08:46;101039.50;;;20.29;84.29
33949;BME280;20229;49.856;19.030;2023-05-23T17:14:00;101040.94;;;20.24;84.58
33949;BME280;20229;49.856;19.030;2023-05-23T17:19:14;101040.02;;;20.14;83.78
33949;BME280;20229;49.856;19.030;2023-05-23T17:24:28;101049.59;;;20.00;84.77
33949;BME280;20229;49.856;19.030;2023-05-23T17:29:42;101058.05;;;19.98;84.56
33949;BME280;20229;49.856;19.030;2023-05-23T17:34:57;101058.01;;;19.89;85.61
33949;BME280;20229;49.856;19.030;2023-05-23T17:40:11;101067.01;;;19.81;85.97
33949;BME280;20229;49.856;19.030;2023-05-23T17:45:27;101074.37;;;19.71;86.78
33949;BME280;20229;49.856;19.030;2023-05-23T17:50:43;101078.22;;;19.58;87.99
33949;BME280;20229;49.856;19.030;2023-05-23T17:55:58;101082.55;;;19.51;89.15
33949;BME280;20229;49.856;19.030;2023-05-23T18:01:12;101085.51;;;19.39;87.25
33949;BME280;20229;49.856;19.030;2023-05-23T18:06:27;101096.03;;;19.24;87.14
33949;BME280;20229;49.856;19.030;2023-05-23T18:11:42;101094.60;;;19.08;87.60
33949;BME280;20229;49.856;19.030;2023-05-23T18:16:56;101104.70;;;18.98;88.12
33949;BME280;20229;49.856;19.030;2023-05-23T18:22:11;101108.24;;;18.89;87.78
33949;BME280;20229;49.856;19.030;2023-05-23T18:27:29;101116.07;;;18.84;88.48
33949;BME280;20229;49.856;19.030;2023-05-23T18:32:44;101127.89;;;18.75;89.20
33949;BME280;20229;49.856;19.030;2023-05-23T18:37:58;101133.02;;;18.68;89.11
33949;BME280;20229;49.856;19.030;2023-05-23T18:43:12;101139.20;;;18.60;90.47
33949;BME280;20229;49.856;19.030;2023-05-23T18:48:29;101142.36;;;18.56;90.97
33949;BME280;20229;49.856;19.030;2023-05-23T18:53:43;101143.98;;;18.47;91.41
33949;BME280;20229;49.856;19.030;2023-05-23T18:58:58;101148.16;;;18.42;91.68
33949;BME280;20229;49.856;19.030;2023-05-23T19:04:12;101149.53;;;18.36;92.03
33949;BME280;20229;49.856;19.030;2023-05-23T19:09:27;101157.20;;;18.32;92.50
33949;BME280;20229;49.856;19.030;2023-05-23T19:14:42;101157.68;;;18.26;92.74
33949;BME280;20229;49.856;19.030;2023-05-23T19:19:55;101153.30;;;18.24;93.29
33949;BME280;20229;49.856;19.030;2023-05-23T19:25:10;101164.95;;;18.16;93.03
33949;BME280;20229;49.856;19.030;2023-05-23T19:30:24;101162.34;;;18.14;92.80
33949;BME280;20229;49.856;19.030;2023-05-23T19:35:39;101168.09;;;18.11;92.73
33949;BME280;20229;49.856;19.030;2023-05-23T19:40:53;101179.39;;;18.08;92.25
33949;BME280;20229;49.856;19.030;2023-05-23T19:46:08;101175.27;;;18.03;93.58
33949;BME280;20229;49.856;19.030;2023-05-23T19:51:23;101178.14;;;18.01;93.01
33949;BME280;20229;49.856;19.030;2023-05-23T19:56:37;101181.28;;;17.97;93.32
33949;BME280;20229;49.856;19.030;2023-05-23T20:01:53;101176.87;;;17.94;93.43
33949;BME280;20229;49.856;19.030;2023-05-23T20:07:07;101187.28;;;17.90;92.03
33949;BME280;20229;49.856;19.030;2023-05-23T20:12:21;101190.41;;;17.86;93.89
33949;BME280;20229;49.856;19.030;2023-05-23T20:17:36;101199.96;;;17.82;93.36
33949;BME280;20229;49.856;19.030;2023-05-23T20:22:50;101205.71;;;17.79;93.73
33949;BME280;20229;49.856;19.030;2023-05-23T20:28:04;101209.70;;;17.75;94.54
33949;BME280;20229;49.856;19.030;2023-05-23T20:33:19;101213.43;;;17.74;95.39
33949;BME280;20229;49.856;19.030;2023-05-23T20:38:32;101211.04;;;17.69;95.78
33949;BME280;20229;49.856;19.030;2023-05-23T20:43:46;101221.21;;;17.68;95.45
33949;BME280;20229;49.856;19.030;2023-05-23T20:49:01;101222.96;;;17.69;97.11
33949;BME280;20229;49.856;19.030;2023-05-23T20:54:16;101235.25;;;17.65;97.12
33949;BME280;20229;49.856;19.030;2023-05-23T20:59:30;101237.37;;;17.62;97.43
33949;BME280;20229;49.856;19.030;2023-05-23T21:04:43;101236.49;;;17.61;97.82
33949;BME280;20229;49.856;19.030;2023-05-23T21:09:59;101238.48;;;17.59;97.64
33949;BME280;20229;49.856;19.030;2023-05-23T21:15:13;101241.51;;;17.56;98.12
33949;BME280;20229;49.856;19.030;2023-05-23T21:20:30;101239.86;;;17.54;98.94
33949;BME280;20229;49.856;19.030;2023-05-23T21:25:44;101234.70;;;17.49;99.77
33949;BME280;20229;49.856;19.030;2023-05-23T21:30:57;101236.91;;;17.44;99.96
33949;BME280;20229;49.856;19.030;2023-05-23T21:36:11;101240.78;;;17.41;100.00
33949;BME280;20229;49.856;19.030;2023-05-23T21:41:25;101243.91;;;17.37;100.00
33949;BME280;20229;49.856;19.030;2023-05-23T21:46:40;101240.36;;;17.35;100.00
33949;BME280;20229;49.856;19.030;2023-05-23T21:51:53;101240.86;;;17.29;100.00
33949;BME280;20229;49.856;19.030;2023-05-23T21:57:07;101240.86;;;17.29;100.00
33949;BME280;20229;49.856;19.030;2023-05-23T22:02:21;101248.49;;;17.25;100.00
33949;BME280;20229;49.856;19.030;2023-05-23T22:07:29;101251.35;;;17.24;100.00
33949;BME280;20229;49.856;19.030;2023-05-23T22:12:44;101245.08;;;17.22;100.00
33949;BME280;20229;49.856;19.030;2023-05-23T22:17:58;101249.72;;;17.21;100.00
33949;BME280;20229;49.856;19.030;2023-05-23T22:23:14;101253.59;;;17.18;100.00
33949;BME280;20229;49.856;19.030;2023-05-23T22:28:29;101261.87;;;17.18;100.00
33949;BME280;20229;49.856;19.030;2023-05-23T22:33:43;101262.32;;;17.12;100.00
33949;BME280;20229;49.856;19.030;2023-05-23T22:38:57;101258.81;;;17.10;100.00
33949;BME280;20229;49.856;19.030;2023-05-23T22:44:17;101258.16;;;17.07;100.00
33949;BME280;20229;49.856;19.030;2023-05-23T22:49:31;101258.16;;;17.07;100.00
33949;BME280;20229;49.856;19.030;2023-05-23T22:54:44;101249.11;;;17.05;100.00
33949;BME280;20229;49.856;19.030;2023-05-23T22:59:58;101248.98;;;17.06;100.00
33949;BME280;20229;49.856;19.030;2023-05-23T23:05:12;101239.08;;;17.04;100.00
33949;BME280;20229;49.856;19.030;2023-05-23T23:10:26;101249.98;;;17.05;100.00
33949;BME280;20229;49.856;19.030;2023-05-23T23:15:40;101245.56;;;17.03;100.00
33949;BME280;20229;49.856;19.030;2023-05-23T23:20:56;101246.58;;;17.02;100.00
33949;BME280;20229;49.856;19.030;2023-05-23T23:26:10;101250.43;;;16.99;100.00
33949;BME280;20229;49.856;19.030;2023-05-23T23:31:24;101246.93;;;16.97;100.00
33949;BME280;20229;49.856;19.030;2023-05-23T23:36:38;101245.40;;;16.93;100.00
33949;BME280;20229;49.856;19.030;2023-05-23T23:41:53;101249.12;;;16.92;100.00
33949;BME280;20229;49.856;19.030;2023-05-23T23:47:07;101249.48;;;16.87;100.00
33949;BME280;20229;49.856;19.030;2023-05-23T23:52:22;101255.87;;;16.88;100.00
33949;BME280;20229;49.856;19.030;2023-05-23T23:57:36;101245.85;;;16.87;100.00
